Date,TemperatureHighF,TemperatureAvgF,TemperatureLowF,DewpointHighF,DewpointAvgF,DewpointLowF,HumidityHigh,HumidityAvg,HumidityLow,PressureMaxIn,PressureMinIn,WindSpeedMaxMPH,WindSpeedAvgMPH,GustSpeedMaxMPH,PrecipitationSumIn
2013-1-14,70.3,66.9,0.0,66.6,63.5,0.0,94,87,85,30.33,30.27,2,0,2,0.00
2013-1-15,70.2,64.0,61.3,63.9,61.7,60.1,98,92,80,32.13,24.57,2,0,2,18.21
2013-1-16,78.6,66.0,0.0,74.7,62.2,0.0,98,89,44,30.27,30.15,19,0,19,0.00
2013-1-17,83.3,68.9,0.0,70.7,59.6,0.0,98,74,35,30.21,30.03,57,3,57,0.00
2013-1-18,70.3,59.7,45.9,61.3,46.4,32.4,90,62,44,30.36,30.21,20,4,20,0.00
2013-1-19,72.9,68.0,64.8,66.4,62.2,54.5,98,83,62,30.36,30.21,14,4,14,0.00
2013-1-20,72.9,67.2,61.7,68.8,63.9,61.1,98,90,73,30.30,30.15,18,2,18,0.00
2013-1-21,75.6,66.7,62.6,69.4,64.4,60.2,98,92,69,30.21,30.09,6,0,6,0.00
2013-1-22,69.3,62.0,53.1,60.5,46.6,37.8,93,59,33,30.39,24.57,21,2,21,0.00
2013-1-23,70.2,58.2,48.6,47.8,39.9,31.1,84,52,36,30.44,30.33,20,1,20,0.79
2013-1-24,71.8,56.6,43.2,56.1,43.4,37.0,98,67,32,30.41,30.33,8,1,8,0.00
2013-1-25,75.2,59.8,48.6,60.5,49.7,41.9,98,74,31,30.44,30.30,6,1,6,0.00
2013-1-26,74.8,60.9,47.3,58.4,49.0,41.7,98,70,31,30.41,30.27,7,1,7,0.00
2013-1-27,75.0,63.8,50.2,67.0,54.4,48.0,98,76,40,30.44,30.33,57,1,57,0.00
2013-1-28,74.1,70.5,67.8,68.6,65.0,60.9,97,83,65,30.47,30.36,11,3,11,0.00
2013-1-29,78.3,70.1,60.6,72.3,64.4,60.1,98,84,59,30.39,30.24,12,3,12,0.00
2013-1-30,82.9,72.6,63.1,67.2,59.8,50.9,98,68,33,30.27,24.57,15,2,15,0.78
2013-1-31,69.1,61.6,51.3,68.5,45.2,25.5,98,62,24,30.33,30.03,8,2,8,0.00
2013-2-1,66.9,55.1,43.3,38.8,30.2,23.6,77,40,23,30.44,30.30,8,1,8,0.00
2013-2-2,71.2,56.5,40.6,48.0,41.1,35.0,85,61,30,30.41,30.24,8,1,8,0.00
2013-2-3,71.8,58.9,47.3,50.4,39.6,26.7,91,54,24,30.30,30.18,10,1,10,0.79
2013-2-4,70.0,56.7,42.1,46.4,37.9,31.7,81,53,25,30.24,24.57,8,1,8,0.00
2013-2-5,76.3,59.0,42.4,51.1,43.2,35.6,97,62,27,30.21,24.57,8,1,8,0.00
2013-2-6,77.7,66.1,54.0,65.1,56.9,48.8,98,74,43,30.24,30.12,57,2,57,0.00
2013-2-7,78.6,69.9,58.6,66.2,58.7,0.0,97,70,42,30.24,30.03,19,3,19,0.00
2013-2-8,81.5,69.1,60.1,68.1,57.8,45.4,98,71,30,30.18,29.97,9,2,9,0.00
2013-2-9,74.3,66.2,56.7,61.9,54.7,49.6,98,70,43,91.07,30.15,19,2,19,30.84
2013-2-10,74.8,69.5,66.2,57.3,51.1,46.4,70,53,38,30.41,30.27,57,5,57,0.80
2013-2-11,81.0,71.5,62.2,65.4,57.7,48.2,92,64,33,32.13,30.21,13,3,13,0.00
2013-2-12,85.5,73.0,61.2,68.0,61.2,50.5,98,70,31,30.27,30.06,19,2,19,0.00
2013-2-13,87.1,74.9,66.0,70.5,62.2,51.1,98,70,30,30.12,29.97,10,2,10,0.00
2013-2-14,66.4,63.0,60.4,61.7,59.2,55.8,98,88,69,30.18,30.06,4,1,4,0.00
2013-2-15,69.3,62.0,57.7,62.0,58.9,54.8,98,90,62,30.18,24.57,5,1,5,0.77
2013-2-16,70.0,61.3,50.7,61.0,42.4,23.1,98,57,23,30.21,30.00,19,3,19,0.00
2013-2-17,55.2,46.6,36.5,30.0,14.8,7.5,60,30,15,30.47,30.18,11,2,11,0.00
2013-2-18,66.4,53.4,36.7,44.3,32.6,8.4,80,47,25,32.13,30.33,11,2,11,0.00
2013-2-19,78.6,64.1,47.1,60.8,47.0,41.7,98,60,29,30.36,30.21,19,1,19,0.00
2013-2-20,74.1,64.2,53.2,63.0,55.3,50.1,98,75,48,91.07,30.15,10,2,10,0.00
2013-2-21,81.3,69.8,60.1,70.2,60.7,52.3,98,76,42,30.24,30.15,7,2,7,0.00
2013-2-22,79.2,71.4,60.8,71.3,67.0,60.2,98,87,65,30.24,30.15,19,3,19,0.00
2013-2-23,86.9,75.3,63.9,73.0,62.9,51.1,98,71,30,30.18,30.00,11,1,11,0.00
2013-2-24,85.3,72.3,67.5,68.4,65.8,55.5,98,83,37,30.12,30.00,20,2,20,0.00
2013-2-25,84.4,72.8,66.4,74.8,66.3,0.0,98,83,36,30.06,29.91,19,1,19,0.00
2013-2-26,84.2,75.7,67.8,72.2,66.1,55.8,98,75,40,30.03,24.57,13,3,13,0.00
2013-2-27,67.8,64.9,62.6,66.0,58.2,46.2,96,80,55,30.09,30.00,5,1,5,0.81
2013-2-28,74.3,63.6,53.1,49.0,40.5,30.9,83,47,22,30.12,29.97,6,1,6,0.00
2013-3-1,65.1,58.3,53.8,44.5,35.5,25.9,67,44,24,30.12,30.00,10,2,10,0.00
2013-3-2,59.7,53.3,41.7,34.0,26.6,19.9,65,36,24,30.15,30.06,10,2,10,0.00
2013-3-3,57.0,47.3,37.9,31.4,24.2,20.7,66,41,27,61.18,30.09,13,2,13,18.21
2013-3-4,78.3,48.1,32.4,37.7,26.5,-30.0,84,48,17,30.36,30.21,18,1,18,0.00
2013-3-5,75.9,59.3,39.4,53.8,39.6,31.1,98,55,21,30.33,30.15,115,1,115,0.00
2013-3-6,70.5,61.6,49.5,63.3,35.1,11.1,98,47,12,30.24,30.06,15,3,15,0.00
2013-3-7,64.6,54.1,44.1,42.6,33.9,24.2,83,48,36,30.33,24.57,11,2,11,0.00
2013-3-8,67.8,56.9,43.2,53.7,41.5,30.6,98,61,27,30.33,30.24,11,1,11,0.00
2013-3-9,51.3,49.4,48.2,45.8,42.7,40.7,83,78,71,30.30,30.24,0,0,0,0.00
2013-3-11,75.0,66.9,54.5,63.2,52.2,44.3,97,62,35,30.24,30.09,13,3,13,0.00
2013-3-12,73.8,68.7,62.4,70.9,62.6,55.8,98,81,68,30.15,30.00,12,2,12,0.00
2013-3-13,71.8,61.1,50.5,56.8,44.0,5.8,96,59,23,91.07,30.09,12,2,12,0.97
2013-3-14,54.0,52.3,49.8,45.2,42.5,39.9,75,69,67,30.30,30.21,2,0,2,0.00
2013-3-15,66.9,60.2,43.5,44.4,33.6,23.2,84,41,20,91.07,30.27,8,2,8,0.00
2013-3-16,76.8,60.0,41.5,54.2,40.7,25.0,98,57,18,91.07,30.18,12,2,12,0.00
2013-3-17,61.7,52.2,47.3,48.8,46.2,43.1,95,81,58,30.24,30.21,2,0,2,0.00
2013-3-18,77.4,71.1,66.9,65.1,61.2,55.0,94,73,46,30.12,30.06,8,2,8,0.00
2013-3-19,81.0,70.1,61.7,68.4,61.2,53.2,98,77,42,30.12,30.03,18,2,18,0.00
2013-3-20,78.1,70.3,62.4,70.8,59.6,48.6,98,73,39,30.09,24.57,19,1,19,0.00
2013-3-21,68.7,61.1,48.0,55.2,38.9,20.1,92,52,17,30.09,24.57,7,2,7,0.00
2013-3-22,73.8,57.8,43.0,62.5,43.5,33.7,94,65,26,30.15,30.00,115,2,115,0.00
2013-3-24,88.3,73.2,67.5,72.6,66.4,51.7,98,83,34,30.00,29.76,24,2,24,0.00
2013-3-25,73.2,68.3,56.8,70.3,42.5,14.4,98,52,11,30.15,29.85,12,2,12,0.00
2013-3-26,62.8,55.4,48.2,31.9,20.7,9.8,42,27,14,32.13,30.12,13,2,13,0.00
2013-3-27,61.5,52.1,42.8,35.3,27.7,23.0,70,41,24,30.39,30.27,20,2,20,0.00
2013-3-28,66.2,55.3,41.4,41.7,33.7,16.8,88,49,16,30.44,30.30,20,2,20,0.00
2013-3-29,70.7,59.1,46.9,49.0,38.5,0.0,100,52,25,30.44,30.33,11,2,229,0.00
2013-3-30,73.6,61.5,47.1,58.1,43.8,39.7,98,57,31,30.36,30.27,19,2,19,0.00
2013-3-31,82.8,68.2,53.8,61.8,51.3,42.2,90,58,25,30.33,30.15,15,2,15,0.00
2013-4-1,85.5,73.9,63.5,68.8,57.2,44.1,98,61,24,30.18,30.03,12,2,12,0.00
2013-4-2,79.3,71.5,63.5,66.8,57.8,45.8,98,66,31,30.24,30.09,8,2,8,0.00
2013-4-3,80.8,73.6,65.8,70.3,62.9,51.7,96,71,38,30.24,24.57,14,4,14,0.98
2013-4-4,74.7,70.2,66.0,72.8,69.1,65.3,98,97,90,30.18,30.00,12,2,12,0.00
2013-4-5,74.7,67.8,62.2,70.1,64.8,57.4,98,90,70,30.09,29.91,8,2,8,0.00
2013-4-6,74.5,65.8,56.3,60.5,54.0,48.0,95,68,41,30.24,30.09,12,2,12,0.00
2013-4-7,76.5,70.9,62.6,58.3,51.6,45.1,84,52,35,30.30,30.18,19,3,19,0.00
2013-4-8,82.4,70.0,58.1,70.7,56.7,47.4,98,67,35,30.30,30.18,19,2,19,0.00
2013-4-9,79.5,72.1,64.6,67.7,59.3,50.0,98,67,40,30.30,30.21,19,3,19,0.00
2013-4-10,80.8,72.2,0.0,72.5,64.2,0.0,98,78,49,30.24,30.12,14,4,14,0.00
2013-4-11,76.1,73.2,0.0,72.3,69.5,0.0,97,87,73,30.18,24.57,12,4,12,0.00
2013-4-12,84.0,79.4,75.0,64.2,61.6,58.5,69,55,42,30.06,30.00,3,0,3,0.00
2013-4-13,84.0,74.8,70.9,73.1,65.8,60.5,96,75,47,30.12,30.00,12,2,12,0.00
2013-4-14,83.8,76.3,69.1,76.2,71.1,65.6,98,85,57,30.12,29.97,18,4,18,0.00
2013-4-15,81.3,74.0,66.4,70.7,63.4,53.8,98,73,42,30.21,22.71,18,2,18,0.00
2013-4-16,81.9,76.0,69.4,74.2,66.8,60.9,98,75,51,61.18,30.15,10,3,10,0.00
2013-4-17,81.3,74.8,66.2,71.8,61.7,55.5,96,66,44,32.13,30.18,172,3,172,0.00
2013-4-18,83.1,76.6,67.8,71.3,64.3,57.8,94,67,48,30.18,30.09,13,3,13,0.00
2013-4-19,88.0,78.1,69.6,74.6,67.9,55.3,98,74,35,30.18,30.03,17,3,17,0.98
2013-4-20,77.4,71.1,66.6,76.6,67.0,58.7,98,88,66,30.24,24.57,12,2,12,0.00
2013-4-21,79.9,75.1,0.0,71.9,66.9,0.0,96,76,61,30.24,30.12,19,3,19,0.00
2013-4-22,77.7,71.9,68.7,71.6,66.6,58.0,98,85,58,30.21,30.09,10,1,10,0.00
2013-4-23,79.0,72.4,66.6,71.0,60.2,23.7,98,69,40,30.24,30.09,20,3,20,0.00
2013-4-24,70.2,68.9,67.8,61.4,55.4,52.7,79,62,56,30.24,30.18,6,1,6,0.00
2013-4-25,77.0,73.4,71.8,62.7,59.1,54.1,73,62,46,30.33,30.27,7,2,7,0.00
2013-4-26,81.5,74.2,64.8,69.1,59.7,51.5,97,64,37,30.36,30.27,8,2,8,0.00
2013-4-27,80.4,75.6,0.0,66.4,57.6,0.0,76,54,42,30.36,24.57,11,4,11,0.00
2013-4-28,80.2,74.9,0.0,59.3,55.1,0.0,64,51,40,30.30,24.57,15,4,15,0.00
2013-4-29,78.3,72.5,69.6,68.0,62.4,56.8,88,71,50,30.21,30.03,10,2,10,0.00
2013-4-30,81.1,74.0,69.1,72.1,67.3,60.0,96,80,51,30.15,30.03,11,1,11,0.00
2013-5-1,80.2,71.6,65.8,73.7,67.3,60.4,98,87,52,30.15,30.06,18,1,18,0.00
2013-5-2,76.5,72.5,67.1,71.9,68.5,64.8,98,88,70,30.09,29.97,16,3,16,0.00
2013-5-3,83.3,74.7,68.7,76.3,65.2,55.9,98,76,41,29.97,29.79,6,1,6,0.00
2013-5-4,83.5,73.9,35.2,69.1,63.3,0.0,98,73,37,29.94,29.82,6,2,6,0.00
2013-5-5,77.2,71.4,65.8,68.1,46.5,25.1,98,50,15,30.09,24.57,57,2,57,0.00
2013-5-6,80.6,70.4,57.9,58.9,45.1,32.6,90,44,20,30.12,30.03,20,1,20,0.00
2013-5-7,80.2,69.3,53.8,55.5,45.2,39.2,90,46,24,30.18,30.09,20,1,20,0.00
2013-5-8,82.0,70.8,58.8,59.5,51.5,42.2,91,54,25,30.27,30.15,5,1,5,0.00
2013-5-9,79.5,72.1,59.7,65.6,58.0,52.2,94,63,40,30.30,30.21,9,2,9,0.00
2013-5-10,85.1,75.1,64.9,75.1,65.0,55.5,98,73,38,30.27,30.15,13,3,13,1.02
2013-5-11,90.1,75.5,0.0,73.3,65.9,0.0,98,77,29,30.21,30.06,172,1,172,0.00
2013-5-12,88.2,76.1,68.7,75.3,68.6,56.1,98,81,35,30.18,30.03,115,1,115,0.00
2013-5-13,81.0,73.1,68.9,71.3,58.5,44.2,95,64,36,30.24,24.57,20,2,20,0.00
2013-5-14,79.5,72.4,61.3,52.9,44.4,38.6,64,38,25,30.33,30.21,10,2,10,0.00
2013-5-15,74.8,68.6,62.2,59.2,51.5,46.1,79,55,44,30.33,30.21,6,0,6,0.00
2013-5-16,79.9,72.0,60.4,65.6,54.5,46.8,96,58,33,30.27,30.15,10,2,10,0.00
2013-5-17,82.4,74.8,64.4,69.7,59.8,54.1,94,62,41,30.24,30.15,15,3,15,0.00
2013-5-18,83.8,76.9,67.1,72.3,65.6,60.1,97,70,47,30.24,30.15,172,3,172,0.00
2013-5-19,77.9,75.1,71.4,76.0,69.0,64.7,98,82,68,30.24,30.15,19,2,19,0.00
2013-5-20,81.9,75.3,69.3,75.9,67.4,56.5,98,79,43,30.24,30.12,19,2,19,0.00
2013-5-21,78.8,72.6,70.2,74.3,71.4,68.8,98,96,74,30.18,30.09,8,1,8,0.00
2013-5-22,77.2,72.4,0.0,72.3,67.9,0.0,98,84,72,30.09,30.03,57,1,57,0.00
2013-5-23,85.6,76.8,68.5,76.3,68.4,60.7,98,78,45,30.15,30.03,9,2,9,1.00
2013-5-24,89.6,79.5,70.7,72.3,64.8,51.3,97,66,28,30.21,30.09,9,2,9,0.00
2013-5-25,84.4,78.4,73.4,71.4,54.6,42.6,85,46,25,30.33,30.18,19,4,19,0.00
2013-5-26,80.2,75.1,66.9,59.2,50.6,45.0,63,43,30,30.36,30.27,8,3,8,0.99
2013-5-27,81.3,76.6,71.1,62.4,55.4,50.3,63,48,38,91.07,30.21,174,4,174,0.00
2013-5-28,82.6,77.9,74.8,76.3,65.6,61.0,91,66,55,30.30,30.21,18,6,18,0.00
2013-5-29,79.9,76.3,72.3,75.6,71.5,65.4,98,86,69,32.13,30.18,18,4,18,0.99
2013-5-30,81.7,78.4,75.4,73.5,66.8,0.0,100,69,48,30.27,30.18,15,6,15,0.00
2013-5-31,82.8,79.1,76.1,68.2,65.1,61.6,71,63,53,30.24,30.15,13,6,13,0.00
2013-6-1,83.5,78.9,76.3,76.3,70.8,66.0,97,77,61,30.21,24.57,19,5,19,0.00
2013-6-2,86.9,79.0,71.2,79.8,72.3,65.7,98,82,52,30.15,30.03,19,2,19,0.00
2013-6-3,78.4,73.6,72.0,77.0,72.9,71.4,98,98,93,30.09,30.03,2,0,2,0.00
2013-6-7,87.6,79.2,0.0,72.4,65.5,0.0,89,62,44,30.09,30.00,6,1,6,0.00
2013-6-8,75.9,75.0,73.9,74.3,73.8,72.4,98,96,90,30.12,30.09,19,0,19,0.00
2013-6-9,85.6,81.3,0.0,77.2,70.0,0.0,92,69,48,30.24,30.15,14,4,14,0.00
2013-6-10,86.7,80.6,76.1,78.7,72.7,64.6,97,78,50,30.24,30.15,19,3,19,0.99
2013-6-11,87.1,79.6,73.6,80.7,73.2,60.0,98,82,52,30.21,30.15,20,1,20,0.00
2013-6-12,88.7,79.9,71.2,80.8,69.3,61.1,98,73,46,30.21,24.57,11,2,11,0.00
2013-6-13,83.1,77.2,72.7,71.7,67.6,63.1,95,73,54,30.18,30.03,4,0,4,0.00
2013-6-14,91.2,82.7,73.8,77.2,65.6,53.1,98,62,28,30.09,29.97,20,2,20,0.00
2013-6-15,80.6,77.0,73.4,70.5,67.5,64.0,90,73,57,30.09,30.03,4,1,4,0.00
2013-6-17,82.2,76.5,0.0,72.0,67.4,0.0,76,69,68,30.18,30.12,19,3,19,0.00
2013-6-18,92.1,82.3,0.0,78.1,67.5,0.0,98,64,30,30.21,30.09,19,2,19,0.00
2013-6-19,90.0,80.9,72.9,70.7,63.6,53.6,81,58,34,30.21,0.03,20,2,20,0.00
2013-6-20,90.1,79.0,73.2,77.0,67.5,59.7,97,70,37,30.24,30.12,19,1,19,0.00
2013-6-21,85.8,75.7,70.7,77.7,71.0,59.5,98,86,51,30.27,30.15,20,0,20,0.00
2013-6-22,86.4,79.5,71.1,79.4,68.2,58.7,98,72,40,32.13,30.18,115,2,115,0.00
2013-6-23,84.9,78.6,73.0,77.1,71.1,63.6,98,79,52,30.30,30.18,6,2,6,0.00
2013-6-24,86.9,81.2,73.2,77.7,68.4,60.9,98,67,43,30.33,30.21,19,3,19,0.00
2013-6-25,86.9,80.9,72.9,77.5,68.3,0.0,100,69,39,32.13,30.18,19,2,19,0.00
2013-6-26,87.6,79.4,75.0,79.6,74.8,64.4,98,87,48,30.24,30.15,19,1,19,0.00
2013-6-27,89.4,80.7,72.1,80.5,68.8,56.3,98,71,34,30.21,30.06,20,2,20,0.00
2013-6-28,92.5,79.4,72.9,73.8,67.0,54.7,97,70,29,30.12,24.57,25,1,25,0.00
2013-6-29,91.8,78.9,0.0,75.1,68.0,0.0,98,74,31,30.06,29.94,17,1,17,1.00
2013-6-30,88.2,77.0,73.0,79.8,72.7,59.7,98,89,40,30.06,29.97,12,1,12,0.00
2013-7-1,87.6,76.5,71.8,76.5,72.2,60.0,98,88,46,30.18,30.03,12,1,12,0.00
2013-7-2,85.6,76.6,72.9,80.4,74.5,67.0,98,94,66,91.07,30.12,7,1,7,0.00
2013-7-3,86.0,79.6,74.3,79.0,71.3,62.4,98,78,52,30.30,24.57,19,3,19,0.00
2013-7-4,86.5,79.9,73.4,76.9,69.5,62.2,98,73,49,30.30,30.21,19,4,19,0.00
2013-7-5,86.2,80.5,74.8,76.2,69.4,62.2,95,71,46,91.07,30.21,72,4,72,0.00
2013-7-6,86.2,80.2,74.8,77.6,69.2,62.0,97,71,47,32.13,30.18,18,3,18,0.00
2013-7-7,86.0,80.8,73.4,77.1,68.9,61.2,98,70,45,30.27,30.18,10,3,10,0.00
2013-7-8,87.1,81.1,74.3,79.2,68.5,60.3,98,69,43,91.07,30.21,9,2,9,0.00
2013-7-9,82.6,76.3,0.0,78.8,69.4,0.0,98,80,49,30.30,30.21,6,1,6,0.00
2013-7-10,85.3,79.5,73.0,79.4,66.9,58.3,98,68,42,30.21,30.09,11,2,11,0.00
2013-7-11,77.5,76.0,74.8,73.0,71.3,69.4,94,86,76,30.18,30.12,1,0,1,0.00
2013-8-28,81.7,80.0,79.5,69.3,58.0,54.3,69,47,40,30.15,30.09,3,0,3,0.00
2013-8-29,90.3,81.3,33.8,70.4,63.9,0.0,82,57,32,30.12,30.03,129,0,129,0.00
2013-8-30,98.2,82.3,74.8,73.9,63.6,49.0,88,57,20,30.12,30.00,11,1,11,0.00
2013-8-31,99.0,82.3,71.6,70.5,60.3,43.0,82,54,15,30.09,29.97,18,2,18,0.00
2013-9-1,94.5,79.4,73.4,76.9,66.2,53.4,94,68,27,30.09,29.97,14,1,14,0.00
2013-9-2,97.2,79.5,73.0,77.7,66.6,51.0,96,69,27,30.15,29.97,11,1,11,0.00
2013-9-3,93.7,79.3,73.4,75.5,68.1,54.7,95,72,27,30.15,29.97,11,1,11,0.00
2013-9-4,87.4,80.8,75.4,73.4,69.4,60.9,89,70,42,30.18,30.09,6,1,6,0.00
2013-9-5,96.6,84.4,76.5,82.1,68.5,55.8,97,64,27,30.21,30.09,172,2,172,0.00
2013-9-6,93.2,82.0,76.5,78.8,68.9,56.7,94,67,34,30.18,30.06,13,2,13,0.00
2013-9-7,91.8,80.7,75.2,73.7,68.2,59.3,94,69,37,30.12,30.00,8,1,8,0.00
2013-9-8,97.7,81.4,73.8,78.2,67.6,48.1,96,69,19,30.06,29.97,11,2,11,0.00